createdAt,value
2022-08-20T00:00:00.517Z,11.3
2022-08-20T00:05:00.234Z,11.3
2022-08-20T00:10:00.173Z,11.4
2022-08-20T00:15:00.174Z,11.4
2022-08-20T00:20:00.457Z,11.3
2022-08-20T00:25:00.236Z,11.3
2022-08-20T00:30:00.181Z,11.3
2022-08-20T00:35:00.181Z,11.2
2022-08-20T00:40:00.384Z,11.2
2022-08-20T00:45:00.485Z,11.2
2022-08-20T00:50:00.241Z,11.1
2022-08-20T00:55:00.170Z,11.2
2022-08-20T01:00:00.196Z,11.1
2022-08-20T01:05:00.180Z,11.1
2022-08-20T01:10:00.606Z,11.1
2022-08-20T01:15:00.226Z,11.1
2022-08-20T01:20:00.180Z,11.1
2022-08-20T01:25:00.197Z,11
2022-08-20T01:30:00.178Z,10.9
2022-08-20T01:35:00.176Z,11
2022-08-20T01:40:00.269Z,11
2022-08-20T01:45:00.499Z,11
2022-08-20T01:50:00.191Z,11.1
2022-08-20T01:55:00.175Z,11.1
2022-08-20T02:00:00.176Z,11.2
2022-08-20T02:05:00.178Z,11.3
2022-08-20T02:10:00.180Z,11.3
2022-08-20T02:15:00.195Z,11.3
2022-08-20T02:20:00.199Z,11.3
2022-08-20T02:25:00.479Z,11.4
2022-08-20T02:30:00.230Z,11.3
2022-08-20T02:35:00.181Z,11.2
2022-08-20T02:40:00.229Z,11.2
2022-08-20T02:45:00.176Z,11.1
2022-08-20T02:50:00.175Z,11
2022-08-20T02:55:00.520Z,11
2022-08-20T03:00:00.238Z,10.9
2022-08-20T03:05:00.174Z,10.8
2022-08-20T03:10:00.181Z,10.8
2022-08-20T03:15:00.177Z,10.9
2022-08-20T03:20:00.448Z,11
2022-08-20T03:25:00.226Z,10.9
2022-08-20T03:30:00.199Z,10.8
2022-08-20T03:35:00.178Z,10.7
2022-08-20T03:40:00.301Z,10.6
2022-08-20T03:45:00.751Z,10.6
2022-08-20T03:50:00.174Z,10.6
2022-08-20T03:55:00.176Z,10.6
2022-08-20T04:00:00.272Z,10.6
2022-08-20T04:05:00.218Z,10.6
2022-08-20T04:10:00.173Z,10.7
2022-08-20T04:15:00.178Z,10.8
2022-08-20T04:20:00.176Z,11
2022-08-20T04:25:00.172Z,11
2022-08-20T04:30:00.174Z,11.1
2022-08-20T04:35:00.172Z,11.2
2022-08-20T04:40:00.288Z,11.2
2022-08-20T04:45:00.311Z,11.2
2022-08-20T04:50:00.490Z,11.2
2022-08-20T04:55:00.211Z,11.3
2022-08-20T05:00:00.403Z,11.3
2022-08-20T05:05:00.429Z,11.4
2022-08-20T05:10:00.222Z,11.3
2022-08-20T05:15:00.179Z,11.3
2022-08-20T05:20:00.191Z,11.2
2022-08-20T05:25:00.254Z,11.2
2022-08-20T05:30:00.242Z,11.2
2022-08-20T05:35:00.172Z,11.2
2022-08-20T05:40:00.271Z,11.4
2022-08-20T05:45:00.467Z,11.5
2022-08-20T05:50:00.425Z,11.7
2022-08-20T05:55:00.247Z,12
2022-08-20T06:00:00.186Z,12.2
2022-08-20T06:05:00.175Z,12.3
2022-08-20T06:10:00.178Z,12.4
2022-08-20T06:15:00.184Z,12.5
2022-08-20T06:20:00.190Z,12.6
2022-08-20T06:25:00.410Z,12.9
2022-08-20T06:30:00.176Z,12.9
2022-08-20T06:35:00.178Z,13.1
2022-08-20T06:40:00.411Z,13.3
2022-08-20T06:45:00.177Z,13.3
2022-08-20T06:50:00.170Z,13.5
2022-08-20T06:55:00.175Z,13.7
2022-08-20T07:05:00.176Z,14.3
2022-08-20T07:10:00.486Z,14.4
2022-08-20T07:15:00.234Z,14.5
2022-08-20T07:20:00.180Z,14.2
2022-08-20T07:25:00.176Z,13.9
2022-08-20T07:30:00.179Z,13.8
2022-08-20T07:35:00.170Z,13.8
2022-08-20T07:40:00.306Z,13.9
2022-08-20T07:45:00.176Z,13.8
2022-08-20T07:50:00.183Z,13.4
2022-08-20T07:55:00.458Z,13.8
2022-08-20T08:00:00.239Z,13.7
2022-08-20T08:05:00.174Z,13.7
2022-08-20T08:10:00.425Z,13.7
2022-08-20T08:15:00.251Z,13.7
2022-08-20T08:20:00.242Z,13.7
2022-08-20T08:25:00.442Z,13.7
2022-08-20T08:30:00.231Z,13.8
2022-08-20T08:35:00.181Z,14
2022-08-20T08:45:00.220Z,13.2
2022-08-20T08:50:00.276Z,13.1
2022-08-20T08:55:00.185Z,13.1
2022-08-20T09:00:04.507Z,13.3
2022-08-20T09:05:00.236Z,13.4
2022-08-20T09:10:00.181Z,13
2022-08-20T09:15:00.448Z,13.2
2022-08-20T09:20:00.248Z,13.2
2022-08-20T09:25:00.470Z,13
2022-08-20T09:30:00.388Z,13.2
2022-08-20T09:35:00.180Z,12.9
2022-08-20T09:40:00.276Z,13.1
2022-08-20T09:45:00.476Z,13.1
2022-08-20T09:50:00.232Z,12.9
2022-08-20T09:55:00.295Z,13
2022-08-20T10:00:00.174Z,13.1
2022-08-20T10:05:00.437Z,13.5
2022-08-20T10:10:00.233Z,13.5
2022-08-20T10:15:00.181Z,13.4
2022-08-20T10:20:00.172Z,13.4
2022-08-20T10:25:00.229Z,13.5
2022-08-20T10:30:00.444Z,13.5
2022-08-20T10:35:00.228Z,13.6
2022-08-20T10:45:00.177Z,13.4
2022-08-20T10:50:00.174Z,13.5
2022-08-20T10:55:00.145Z,13.5
2022-08-20T11:00:00.181Z,13.7
2022-08-20T11:05:00.174Z,13.8
2022-08-20T11:10:00.172Z,13.9
2022-08-20T11:15:00.172Z,13.8
2022-08-20T11:20:00.483Z,13.8
2022-08-20T11:25:00.259Z,13.9
2022-08-20T11:30:00.178Z,14
2022-08-20T11:35:00.183Z,14.5
2022-08-20T11:40:00.336Z,14.6
2022-08-20T11:45:00.180Z,14.6
2022-08-20T11:50:00.437Z,14.7
2022-08-20T11:55:00.236Z,14.5
2022-08-20T12:00:00.193Z,15
2022-08-20T12:05:00.230Z,14.9
2022-08-20T12:10:00.227Z,14.5
2022-08-20T12:15:00.185Z,14.5
2022-08-20T12:20:00.474Z,14.7
2022-08-20T12:25:00.233Z,14.8
2022-08-20T12:30:00.183Z,14.8
2022-08-20T12:35:00.178Z,14.8
2022-08-20T12:40:00.545Z,13.9
2022-08-20T12:45:00.264Z,14.1
2022-08-20T12:50:00.207Z,14.3
2022-08-20T12:55:00.207Z,14.6
2022-08-20T13:00:00.198Z,14.5
2022-08-20T13:05:04.516Z,14.4
2022-08-20T13:10:00.214Z,14.7
2022-08-20T13:15:00.485Z,14.3
2022-08-20T13:20:00.238Z,14
2022-08-20T13:25:00.178Z,14
2022-08-20T13:30:00.440Z,13.9
2022-08-20T13:35:00.269Z,14
2022-08-20T13:40:00.265Z,13.7
2022-08-20T13:45:00.180Z,13.6
2022-08-20T13:50:00.178Z,13.7
2022-08-20T13:55:00.170Z,13.8
2022-08-20T14:00:00.203Z,13.7
2022-08-20T14:05:00.175Z,13.7
2022-08-20T14:10:00.180Z,13.8
2022-08-20T14:15:00.174Z,13.7
2022-08-20T14:20:01.291Z,13.4
2022-08-20T14:25:00.229Z,14.6
2022-08-20T14:30:00.211Z,14.9
2022-08-20T14:35:00.193Z,15.1
2022-08-20T14:40:00.547Z,14.1
2022-08-20T14:45:00.261Z,13.8
2022-08-20T14:50:00.195Z,13.8
2022-08-20T14:55:00.457Z,13.8
2022-08-20T15:00:00.446Z,13.8
2022-08-20T15:05:00.454Z,14
2022-08-20T15:10:00.233Z,14.2
2022-08-20T15:15:04.801Z,14.1
2022-08-20T15:20:00.487Z,13.9
2022-08-20T15:25:00.373Z,13.4
2022-08-20T15:30:00.188Z,13.5
2022-08-20T15:35:00.179Z,13.4
2022-08-20T15:40:00.517Z,13.4
2022-08-20T15:45:00.234Z,13.4
2022-08-20T15:50:00.368Z,13.7
2022-08-20T15:55:00.175Z,13.7
2022-08-20T16:00:00.187Z,14
2022-08-20T16:05:00.172Z,13.8
2022-08-20T16:10:00.192Z,14
2022-08-20T16:15:00.562Z,14.1
2022-08-20T16:20:00.233Z,14.3
2022-08-20T16:25:00.292Z,14.3
2022-08-20T16:30:00.233Z,14.3
2022-08-20T16:35:00.170Z,14.3
2022-08-20T16:40:00.284Z,14.3
2022-08-20T16:45:00.183Z,14.4
2022-08-20T16:50:00.494Z,14.3
2022-08-20T16:55:00.245Z,14.3
2022-08-20T17:05:00.400Z,15
2022-08-20T17:10:00.179Z,15.3
2022-08-20T17:15:00.460Z,14.7
2022-08-20T17:20:00.223Z,14.6
2022-08-20T17:25:00.183Z,14.5
2022-08-20T17:30:00.173Z,14.5
2022-08-20T17:35:00.177Z,14.4
2022-08-20T17:40:00.252Z,14.3
2022-08-20T17:45:00.172Z,14.1
2022-08-20T17:50:01.959Z,14.1
2022-08-20T17:55:00.236Z,13.8
2022-08-20T18:00:02.100Z,13.8
2022-08-20T18:05:00.177Z,13.8
2022-08-20T18:10:00.451Z,13.7
2022-08-20T18:15:00.282Z,13.6
2022-08-20T18:20:00.233Z,13.7
2022-08-20T18:25:00.169Z,13.6
2022-08-20T18:30:00.185Z,13.6
2022-08-20T18:35:03.745Z,13.4
2022-08-20T18:40:00.459Z,13.5
2022-08-20T18:45:00.246Z,13.4
2022-08-20T18:50:00.187Z,13.3
2022-08-20T18:55:00.513Z,13.2
2022-08-20T19:00:00.246Z,13.2
2022-08-20T19:05:02.423Z,13.1
2022-08-20T19:10:00.461Z,13.2
2022-08-20T19:15:00.237Z,13.2
2022-08-20T19:20:00.179Z,13.2
2022-08-20T19:25:00.355Z,13.2
2022-08-20T19:30:00.446Z,13.1
2022-08-20T19:35:00.233Z,13.2
2022-08-20T19:40:00.236Z,13.1
2022-08-20T19:45:00.498Z,13.1
2022-08-20T19:50:00.232Z,13.1
2022-08-20T19:55:03.739Z,13.1
2022-08-20T20:00:00.212Z,13.2
2022-08-20T20:05:00.452Z,13.1
2022-08-20T20:10:00.224Z,13.1
2022-08-20T20:15:00.179Z,13.1
2022-08-20T20:20:00.290Z,13.1
2022-08-20T20:25:00.456Z,13.1
2022-08-20T20:30:00.242Z,13.1
2022-08-20T20:35:00.338Z,13.1
2022-08-20T20:40:00.300Z,13.1
2022-08-20T20:45:00.431Z,13.1
2022-08-20T20:50:00.224Z,13.1
2022-08-20T20:55:00.180Z,13
2022-08-20T21:00:00.343Z,13
2022-08-20T21:05:00.263Z,13
2022-08-20T21:10:00.424Z,12.9
2022-08-20T21:15:00.231Z,12.9
2022-08-20T21:20:00.173Z,12.8
2022-08-20T21:25:00.175Z,12.7
2022-08-20T21:30:00.187Z,12.7
2022-08-20T21:35:00.185Z,12.6
2022-08-20T21:40:00.373Z,12.4
2022-08-20T21:45:00.494Z,12.4
2022-08-20T21:50:00.232Z,12.3
2022-08-20T21:55:00.181Z,12.2
2022-08-20T22:00:00.172Z,12.3
2022-08-20T22:05:00.460Z,12.2
2022-08-20T22:10:00.267Z,12.2
2022-08-20T22:15:00.447Z,12.1
2022-08-20T22:20:00.416Z,12.1
2022-08-20T22:25:00.457Z,12.1
2022-08-20T22:30:00.252Z,12.1
2022-08-20T22:35:00.432Z,12.1
2022-08-20T22:40:00.351Z,12.1
2022-08-20T22:45:00.195Z,12.1
2022-08-20T22:50:00.174Z,12.1
2022-08-20T22:55:00.460Z,12
2022-08-20T23:00:00.335Z,11.8
2022-08-20T23:05:00.172Z,11.8
2022-08-20T23:10:00.202Z,11.7
2022-08-20T23:15:00.176Z,11.7
2022-08-20T23:20:00.467Z,11.6
2022-08-20T23:25:00.735Z,11.5
2022-08-20T23:30:00.184Z,11.5
2022-08-20T23:35:00.178Z,11.5
2022-08-20T23:40:00.267Z,11.4
2022-08-20T23:45:00.176Z,11.3
2022-08-20T23:50:00.176Z,11.3
2022-08-20T23:55:00.493Z,11.3
